Terminal Aerodrome Forecast
Issued by NWS Quad Cities IA IL

Home | Current Version | Previous Version | Text Only | Print | Product List | Glossary On
Versions: 1 2 3 4 5 6 7 8 9 10 11 12 13 14 15 16 17 18 19 20 21 22 23 24 25 26 27 28 29 30 31
000
FTUS43 KDVN 011100 RRA
TAFDBQ
TAF
KDBQ 011144Z 0112/0212 20006KT P6SM VCSH SCT015 BKN060
     FM011500 24013G19KT P6SM SCT035 BKN150
     FM012000 28012KT P6SM BKN050
     FM012300 30006KT P6SM BKN250=

USA.gov is the U.S. government's official web portal to all federal, state and local government web resources and services.